Time;durP1;ratioP1;P1;durP2;ratioP2;P2;SDS_P1;SDS_P2;PMS_P1;PMS_P2;Temp;Humidity;BMP_temperature;BMP_pressure;BME280_temperature;BME280_humidity;BME280_pressure;Samples;Min_cycle;Max_cycle;Signal;HPM_P1;HPM_P2
2023/07/04 00:00:27;;;;;;;5.18;2.78;;;17.80;99.90;;;;;;4967926;28;20192;-39
2023/07/04 00:02:52;;;;;;;4.93;2.72;;;17.80;99.90;;;;;;4972876;28;20216;-42
2023/07/04 00:05:18;;;;;;;4.90;2.90;;;17.80;99.90;;;;;;4988317;28;20221;-41
2023/07/04 00:07:44;;;;;;;4.13;3.00;;;17.80;99.90;;;;;;4981635;28;20208;-42
2023/07/04 00:10:10;;;;;;;9.18;3.25;;;17.70;99.90;;;;;;4992070;28;20215;-40
2023/07/04 00:12:36;;;;;;;5.65;2.75;;;17.70;99.90;;;;;;4975195;28;20175;-41
2023/07/04 00:15:03;;;;;;;4.32;2.63;;;17.60;99.90;;;;;;4981159;28;20184;-40
2023/07/04 00:17:28;;;;;;;3.85;3.08;;;17.60;99.90;;;;;;4995168;28;20237;-39
2023/07/04 00:19:55;;;;;;;4.13;3.00;;;17.50;99.90;;;;;;4992670;28;20218;-43
2023/07/04 00:22:21;;;;;;;5.75;2.80;;;17.60;99.90;;;;;;4984222;28;20180;-41
2023/07/04 00:24:47;;;;;;;5.60;2.97;;;17.60;99.90;;;;;;4988371;28;20236;-40
2023/07/04 00:27:13;;;;;;;3.97;2.85;;;17.50;99.90;;;;;;4991536;28;20212;-40
2023/07/04 00:29:40;;;;;;;5.80;3.25;;;17.60;99.90;;;;;;4967808;28;20207;-41
2023/07/04 00:32:07;;;;;;;4.65;3.05;;;17.50;99.90;;;;;;4973142;28;20181;-39
2023/07/04 00:34:34;;;;;;;5.63;3.03;;;17.50;99.90;;;;;;4991196;28;20191;-41
2023/07/04 00:37:02;;;;;;;5.07;2.78;;;17.50;99.90;;;;;;4980269;28;20204;-41
2023/07/04 00:39:28;;;;;;;4.40;3.05;;;17.50;99.90;;;;;;4987496;28;20343;-38
2023/07/04 00:41:56;;;;;;;4.35;2.95;;;17.40;99.90;;;;;;4976818;28;20262;-41
2023/07/04 00:44:30;;;;;;;3.42;2.80;;;17.40;99.90;;;;;;4989445;28;20296;-42
2023/07/04 00:47:10;;;;;;;4.22;2.75;;;17.40;99.90;;;;;;4974975;28;20233;-39
2023/07/04 00:49:41;;;;;;;4.95;3.03;;;17.40;99.90;;;;;;4987345;28;20202;-38
2023/07/04 00:52:23;;;;;;;6.03;3.30;;;17.30;99.90;;;;;;4974341;28;20249;-39
2023/07/04 00:54:57;;;;;;;6.07;2.95;;;17.30;99.90;;;;;;4999035;28;20241;-39
2023/07/04 00:57:26;;;;;;;4.60;2.72;;;17.30;99.90;;;;;;4972905;28;20247;-40
2023/07/04 00:59:58;;;;;;;5.90;3.08;;;17.30;99.90;;;;;;4970917;28;20275;-41
2023/07/04 01:02:31;;;;;;;4.65;2.95;;;17.40;99.90;;;;;;4976539;28;20234;-40
2023/07/04 01:04:58;;;;;;;4.07;2.95;;;17.40;99.90;;;;;;4968624;28;20191;-37
2023/07/04 01:07:27;;;;;;;6.65;3.00;;;17.30;99.90;;;;;;4991317;28;20275;-38
2023/07/04 01:10:12;;;;;;;4.45;2.97;;;17.40;99.90;;;;;;4978784;28;20215;-40
2023/07/04 01:12:40;;;;;;;5.80;3.20;;;17.40;99.90;;;;;;4981140;28;20190;-40
2023/07/04 01:15:07;;;;;;;6.15;2.83;;;17.30;99.90;;;;;;4990336;28;20179;-38
2023/07/04 01:17:33;;;;;;;4.60;2.65;;;17.40;99.90;;;;;;4985056;28;20198;-39
2023/07/04 01:20:02;;;;;;;5.18;3.15;;;17.40;99.90;;;;;;4988817;28;20674;-41
2023/07/04 01:23:06;;;;;;;5.95;3.20;;;17.50;99.90;;;;;;4994322;28;20197;-41
2023/07/04 01:25:44;;;;;;;4.85;3.15;;;17.50;99.90;;;;;;4971417;28;20184;-43
2023/07/04 01:28:13;;;;;;;5.15;3.00;;;17.50;99.90;;;;;;4986554;28;20326;-42
2023/07/04 01:30:42;;;;;;;6.65;3.35;;;17.50;99.90;;;;;;4986260;28;20223;-43
2023/07/04 01:33:09;;;;;;;4.70;3.10;;;17.40;99.90;;;;;;4976779;28;20209;-41
2023/07/04 01:35:36;;;;;;;6.22;3.47;;;17.40;99.90;;;;;;4973991;28;20187;-43
2023/07/04 01:38:05;;;;;;;7.00;3.38;;;17.30;99.90;;;;;;4989440;28;20218;-41
2023/07/04 01:40:35;;;;;;;5.55;3.25;;;17.40;99.90;;;;;;4987549;28;20215;-42
2023/07/04 01:43:03;;;;;;;4.00;3.08;;;17.40;99.90;;;;;;4970225;28;20188;-41
2023/07/04 01:45:29;;;;;;;4.80;2.67;;;17.40;99.90;;;;;;4964559;28;20188;-40
2023/07/04 01:47:55;;;;;;;6.07;3.40;;;17.40;99.90;;;;;;4968620;28;20200;-43
2023/07/04 01:50:21;;;;;;;4.20;3.00;;;17.40;99.90;;;;;;4977287;28;20221;-41
2023/07/04 01:52:47;;;;;;;4.25;3.13;;;17.40;99.90;;;;;;4976327;28;20242;-42
2023/07/04 01:55:14;;;;;;;6.00;3.58;;;17.40;99.90;;;;;;4981745;28;20176;-44
2023/07/04 01:57:41;;;;;;;3.45;2.40;;;17.50;99.90;;;;;;4996706;28;20207;-43
2023/07/04 02:00:09;;;;;;;5.05;2.72;;;17.40;99.90;;;;;;4982432;28;20191;-43
2023/07/04 02:02:53;;;;;;;5.20;2.90;;;17.40;99.90;;;;;;4987151;28;20267;-40
2023/07/04 02:05:19;;;;;;;6.15;3.05;;;17.40;99.90;;;;;;4986637;28;20384;-41
2023/07/04 02:07:47;;;;;;;5.07;2.83;;;17.40;99.90;;;;;;4978660;28;20226;-42
2023/07/04 02:10:13;;;;;;;7.22;2.78;;;17.40;99.90;;;;;;4970409;28;20216;-41
2023/07/04 02:12:39;;;;;;;4.65;3.00;;;17.40;99.90;;;;;;4973764;28;20171;-42
2023/07/04 02:15:07;;;;;;;3.75;3.00;;;17.40;99.90;;;;;;4982800;28;20266;-43
2023/07/04 02:17:33;;;;;;;4.88;2.97;;;17.40;99.90;;;;;;5000985;28;20746;-42
2023/07/04 02:19:59;;;;;;;4.55;3.00;;;17.40;99.90;;;;;;4983901;28;20202;-43
2023/07/04 02:22:25;;;;;;;6.05;2.95;;;17.30;99.90;;;;;;4971592;28;20647;-43
2023/07/04 02:24:51;;;;;;;3.38;2.80;;;17.40;99.90;;;;;;4998484;28;20188;-42
2023/07/04 02:27:17;;;;;;;3.95;2.80;;;17.40;99.90;;;;;;4982666;28;20208;-43
2023/07/04 02:29:47;;;;;;;5.25;2.70;;;17.30;99.90;;;;;;4966756;28;20208;-43
2023/07/04 02:32:14;;;;;;;2.78;2.58;;;17.20;99.90;;;;;;4975988;28;20236;-44
2023/07/04 02:34:41;;;;;;;4.47;2.67;;;17.20;99.90;;;;;;4978083;28;21469;-44
2023/07/04 02:37:07;;;;;;;3.80;2.58;;;17.10;99.90;;;;;;4997299;28;20207;-41
2023/07/04 02:39:34;;;;;;;3.65;2.92;;;17.00;99.90;;;;;;4974759;28;20220;-42
2023/07/04 02:42:01;;;;;;;4.53;2.60;;;16.90;99.90;;;;;;4971308;28;20191;-40
2023/07/04 02:44:27;;;;;;;3.20;2.35;;;16.90;99.90;;;;;;4990363;28;20214;-42
2023/07/04 02:46:53;;;;;;;3.50;3.00;;;16.90;99.90;;;;;;4974658;28;20180;-43
2023/07/04 02:49:19;;;;;;;3.13;2.45;;;16.80;99.90;;;;;;5006024;28;20207;-42
2023/07/04 02:51:46;;;;;;;3.33;2.47;;;16.80;99.90;;;;;;4980952;28;20659;-42
2023/07/04 02:54:15;;;;;;;3.15;2.35;;;16.80;99.90;;;;;;4971534;28;20183;-43
2023/07/04 02:56:42;;;;;;;3.38;2.50;;;16.70;99.90;;;;;;4990356;28;20187;-43
2023/07/04 02:59:08;;;;;;;3.70;2.63;;;16.70;99.90;;;;;;4986260;28;20327;-42
2023/07/04 03:01:34;;;;;;;3.93;2.57;;;16.70;99.90;;;;;;4977989;28;20270;-43
2023/07/04 03:04:00;;;;;;;3.47;2.40;;;16.70;99.90;;;;;;4997087;28;20191;-43
2023/07/04 03:06:26;;;;;;;2.97;2.53;;;16.60;99.90;;;;;;4998668;28;20204;-41
2023/07/04 03:08:56;;;;;;;4.60;2.60;;;16.60;99.90;;;;;;4976396;28;20211;-41
2023/07/04 03:11:22;;;;;;;5.30;2.50;;;16.60;99.90;;;;;;4989574;28;20267;-41
2023/07/04 03:13:50;;;;;;;3.87;2.43;;;16.60;99.90;;;;;;4980455;28;20188;-42
2023/07/04 03:16:16;;;;;;;3.50;2.15;;;16.60;99.90;;;;;;4985393;28;20176;-39
2023/07/04 03:18:44;;;;;;;3.15;2.50;;;16.60;99.90;;;;;;4988548;28;20192;-41
2023/07/04 03:21:09;;;;;;;3.90;2.67;;;16.60;99.90;;;;;;4986960;28;20191;-42
2023/07/04 03:23:35;;;;;;;3.47;2.40;;;16.60;99.90;;;;;;4977502;28;20176;-41
2023/07/04 03:26:01;;;;;;;3.27;2.27;;;16.70;99.90;;;;;;4981931;28;20198;-43
2023/07/04 03:28:28;;;;;;;3.23;2.53;;;16.70;99.90;;;;;;4985484;28;20203;-42
2023/07/04 03:30:54;;;;;;;3.17;2.33;;;16.70;99.90;;;;;;4985269;28;20199;-43
2023/07/04 03:33:20;;;;;;;4.72;2.60;;;16.70;99.90;;;;;;4975673;28;20175;-43
2023/07/04 03:35:48;;;;;;;4.20;2.10;;;16.70;99.90;;;;;;4980318;28;20199;-42
2023/07/04 03:38:14;;;;;;;4.13;2.40;;;16.70;99.90;;;;;;4989228;28;20226;-43
2023/07/04 03:40:40;;;;;;;4.03;2.28;;;16.70;99.90;;;;;;4980200;28;20187;-42
2023/07/04 03:43:10;;;;;;;3.58;2.45;;;16.70;99.90;;;;;;4998108;28;20182;-42
2023/07/04 03:45:37;;;;;;;5.63;2.35;;;16.70;99.90;;;;;;4980630;28;20181;-44
2023/07/04 03:48:06;;;;;;;3.83;2.35;;;16.70;99.90;;;;;;4987610;28;20208;-43
2023/07/04 03:50:33;;;;;;;5.35;2.22;;;16.70;99.90;;;;;;4973880;28;20239;-43
2023/07/04 03:53:00;;;;;;;6.35;2.47;;;16.70;99.90;;;;;;4984332;28;20210;-43
2023/07/04 03:55:27;;;;;;;4.15;2.47;;;16.70;99.90;;;;;;4983361;28;20188;-42
2023/07/04 03:57:57;;;;;;;6.03;2.38;;;16.70;99.90;;;;;;4990316;28;20207;-42
2023/07/04 04:00:23;;;;;;;2.83;2.42;;;16.70;99.90;;;;;;4993941;28;20191;-42
2023/07/04 04:02:55;;;;;;;4.57;2.50;;;16.60;99.90;;;;;;5001320;28;20188;-42
2023/07/04 04:05:21;;;;;;;2.60;2.40;;;16.70;99.90;;;;;;4986935;28;20194;-42
2023/07/04 04:07:50;;;;;;;3.08;2.30;;;16.70;99.90;;;;;;4966410;28;20298;-42
2023/07/04 04:10:17;;;;;;;3.22;2.22;;;16.70;99.90;;;;;;4988026;28;20309;-41
2023/07/04 04:12:43;;;;;;;3.38;2.15;;;16.70;99.90;;;;;;4974334;28;20180;-42
2023/07/04 04:15:09;;;;;;;4.28;2.50;;;16.80;99.90;;;;;;4975157;28;20191;-43
2023/07/04 04:17:35;;;;;;;4.28;2.58;;;16.90;99.90;;;;;;5011972;28;20212;-42
2023/07/04 04:20:04;;;;;;;3.42;2.72;;;16.90;99.90;;;;;;4986014;28;20277;-42
2023/07/04 04:22:31;;;;;;;3.47;2.60;;;16.80;99.90;;;;;;4972900;28;20259;-41
2023/07/04 04:24:57;;;;;;;3.28;2.72;;;16.70;99.90;;;;;;4984214;28;20184;-42
2023/07/04 04:27:26;;;;;;;3.28;2.70;;;16.70;99.90;;;;;;4983175;28;20270;-41
2023/07/04 04:29:53;;;;;;;3.50;2.85;;;16.70;99.90;;;;;;4975273;28;20211;-42
2023/07/04 04:32:22;;;;;;;3.95;2.40;;;16.80;99.90;;;;;;4972418;28;20188;-42
2023/07/04 04:34:48;;;;;;;4.43;2.63;;;16.80;99.90;;;;;;4993762;28;20185;-41
2023/07/04 04:37:16;;;;;;;4.10;2.58;;;16.80;99.90;;;;;;4975122;28;20208;-41
2023/07/04 04:39:44;;;;;;;3.42;2.33;;;16.90;99.90;;;;;;4973371;28;20186;-40
2023/07/04 04:42:14;;;;;;;4.22;2.80;;;16.90;99.90;;;;;;4979523;28;20193;-41
2023/07/04 04:44:41;;;;;;;4.63;2.75;;;17.00;99.90;;;;;;4970854;28;20180;-41
2023/07/04 04:47:07;;;;;;;5.05;2.53;;;17.00;99.90;;;;;;4967840;28;20208;-41
2023/07/04 04:49:33;;;;;;;3.67;2.67;;;17.00;99.90;;;;;;4976766;28;20196;-41
2023/07/04 04:51:59;;;;;;;5.82;2.90;;;17.10;99.90;;;;;;4985168;28;20187;-42
2023/07/04 04:54:25;;;;;;;3.88;2.40;;;17.10;99.90;;;;;;4990529;28;20180;-42
2023/07/04 04:56:51;;;;;;;3.92;2.45;;;17.10;99.90;;;;;;4976802;28;20180;-42
2023/07/04 04:59:17;;;;;;;2.85;2.35;;;17.20;99.90;;;;;;4984997;28;20817;-40
2023/07/04 05:01:45;;;;;;;4.53;2.50;;;17.20;99.90;;;;;;4983227;28;20183;-42
2023/07/04 05:04:10;;;;;;;4.63;2.40;;;17.30;99.90;;;;;;4987687;28;20187;-42
2023/07/04 05:06:36;;;;;;;3.58;2.70;;;17.40;99.90;;;;;;4976961;28;20184;-41
2023/07/04 05:09:03;;;;;;;4.80;2.55;;;17.40;99.90;;;;;;4987717;28;20266;-42
2023/07/04 05:11:32;;;;;;;4.68;2.90;;;17.50;99.90;;;;;;4990995;28;20184;-42
2023/07/04 05:13:58;;;;;;;5.10;2.40;;;17.50;99.90;;;;;;4985139;28;20180;-42
2023/07/04 05:16:23;;;;;;;4.97;2.60;;;17.60;99.90;;;;;;4984740;28;20184;-40
2023/07/04 05:18:51;;;;;;;3.30;2.40;;;17.60;99.90;;;;;;4980309;28;20219;-40
2023/07/04 05:21:19;;;;;;;3.72;2.50;;;17.60;99.90;;;;;;4975922;28;20187;-42
2023/07/04 05:23:47;;;;;;;3.10;2.53;;;17.70;99.90;;;;;;4983585;28;20172;-42
2023/07/04 05:26:16;;;;;;;3.75;2.40;;;17.70;99.90;;;;;;4969019;28;20232;-42
2023/07/04 05:28:42;;;;;;;3.58;2.90;;;17.70;99.90;;;;;;4982134;28;20322;-42
2023/07/04 05:31:11;;;;;;;4.18;2.42;;;17.70;99.90;;;;;;4983950;28;20935;-43
2023/07/04 05:33:42;;;;;;;2.92;2.38;;;17.80;99.90;;;;;;4986434;28;20185;-42
2023/07/04 05:36:10;;;;;;;4.28;2.50;;;17.80;99.90;;;;;;4975429;28;20664;-42
2023/07/04 05:38:37;;;;;;;5.32;2.88;;;17.90;99.90;;;;;;4986619;28;20207;-43
2023/07/04 05:41:07;;;;;;;3.80;2.05;;;17.90;99.90;;;;;;4989150;28;20190;-39
2023/07/04 05:43:33;;;;;;;3.25;2.40;;;17.90;99.90;;;;;;4984326;28;20188;-42
2023/07/04 05:45:59;;;;;;;3.80;2.42;;;18.00;99.90;;;;;;4976379;28;20176;-42
2023/07/04 05:48:25;;;;;;;4.18;2.47;;;18.00;99.90;;;;;;4979662;28;20231;-42
2023/07/04 05:50:59;;;;;;;3.28;2.50;;;18.00;99.90;;;;;;4989157;28;20203;-43
2023/07/04 05:53:29;;;;;;;5.93;2.67;;;18.10;99.90;;;;;;4973455;28;20181;-43
2023/07/04 05:56:22;;;;;;;3.60;2.45;;;18.10;99.90;;;;;;4968386;28;20183;-41
2023/07/04 05:58:50;;;;;;;4.63;2.67;;;18.10;99.90;;;;;;4980745;28;20199;-43
2023/07/04 06:01:28;;;;;;;3.63;2.83;;;18.20;99.90;;;;;;4993106;28;20179;-43
2023/07/04 06:03:56;;;;;;;5.82;3.05;;;18.20;99.90;;;;;;4980543;28;20180;-43
2023/07/04 06:06:32;;;;;;;6.55;2.65;;;18.20;99.90;;;;;;4996770;28;20195;-42
2023/07/04 06:09:00;;;;;;;4.15;2.72;;;18.20;99.90;;;;;;4977843;28;20203;-41
2023/07/04 06:11:30;;;;;;;3.67;2.35;;;18.20;99.90;;;;;;4972288;28;20184;-42
2023/07/04 06:13:56;;;;;;;4.22;2.30;;;18.30;99.90;;;;;;4985681;28;20179;-41
2023/07/04 06:16:23;;;;;;;4.00;2.60;;;18.30;99.90;;;;;;4992221;28;20237;-42
2023/07/04 06:18:49;;;;;;;4.55;2.60;;;18.40;99.90;;;;;;5016881;28;20200;-43
2023/07/04 06:21:23;;;;;;;6.35;2.47;;;18.40;99.90;;;;;;4995164;28;20179;-41
2023/07/04 06:23:50;;;;;;;4.63;2.80;;;18.50;99.90;;;;;;4979144;28;20611;-43
2023/07/04 06:26:16;;;;;;;3.75;2.70;;;18.50;99.90;;;;;;4989984;28;20196;-43
2023/07/04 06:28:43;;;;;;;5.25;2.58;;;18.60;99.90;;;;;;4986675;28;20291;-43
2023/07/04 06:31:14;;;;;;;4.50;2.40;;;18.60;99.90;;;;;;4985508;28;20187;-41
2023/07/04 06:33:40;;;;;;;2.83;2.40;;;18.60;99.90;;;;;;4974581;28;20272;-43
2023/07/04 06:36:10;;;;;;;3.42;2.25;;;18.60;99.90;;;;;;4997809;28;20175;-42
2023/07/04 06:38:36;;;;;;;3.78;2.17;;;18.70;99.90;;;;;;4982921;28;20246;-42
2023/07/04 06:41:05;;;;;;;5.40;2.47;;;18.70;99.90;;;;;;4972121;28;20184;-41
2023/07/04 06:43:33;;;;;;;4.28;2.55;;;18.70;99.90;;;;;;4976176;28;20263;-42
2023/07/04 06:45:59;;;;;;;3.42;2.70;;;18.80;99.90;;;;;;4982123;28;20191;-43
2023/07/04 06:48:26;;;;;;;5.28;2.70;;;18.90;99.90;;;;;;4979698;28;20208;-42
2023/07/04 06:51:04;;;;;;;4.22;2.38;;;18.90;99.90;;;;;;4991667;28;20210;-43
2023/07/04 06:53:30;;;;;;;3.42;2.60;;;19.10;99.90;;;;;;4994968;28;20186;-43
2023/07/04 06:56:25;;;;;;;3.13;2.10;;;19.10;99.90;;;;;;4977025;28;20179;-42
2023/07/04 06:58:54;;;;;;;4.63;2.67;;;19.20;99.90;;;;;;4959474;28;20212;-42
2023/07/04 07:01:28;;;;;;;3.60;2.40;;;19.20;99.90;;;;;;5005628;28;20245;-43
2023/07/04 07:03:55;;;;;;;3.35;2.50;;;19.30;99.90;;;;;;4976874;28;20247;-43
2023/07/04 07:06:21;;;;;;;3.33;2.38;;;19.40;99.90;;;;;;4999464;28;20195;-43
2023/07/04 07:08:47;;;;;;;2.97;2.20;;;19.50;99.90;;;;;;4980540;28;20211;-42
2023/07/04 07:11:16;;;;;;;2.42;2.22;;;19.50;99.90;;;;;;4976953;28;20242;-42
2023/07/04 07:13:42;;;;;;;2.67;2.35;;;19.60;99.90;;;;;;4978260;28;20206;-43
2023/07/04 07:16:16;;;;;;;4.25;2.40;;;19.70;99.90;;;;;;4983464;28;20184;-42
2023/07/04 07:18:44;;;;;;;2.30;2.10;;;19.70;99.90;;;;;;4987552;28;20198;-42
2023/07/04 07:21:14;;;;;;;2.60;2.10;;;19.70;99.90;;;;;;4981142;28;20195;-41
2023/07/04 07:23:42;;;;;;;2.50;2.30;;;19.80;99.90;;;;;;4986509;28;20179;-42
2023/07/04 07:26:15;;;;;;;2.80;2.10;;;19.90;99.90;;;;;;4995533;28;20192;-43
2023/07/04 07:28:40;;;;;;;6.13;2.30;;;19.90;99.90;;;;;;4979996;28;20218;-42
2023/07/04 07:31:12;;;;;;;2.55;2.22;;;19.90;99.90;;;;;;4981653;28;20207;-43
2023/07/04 07:33:40;;;;;;;3.80;2.22;;;19.90;99.90;;;;;;4981520;28;20179;-42
2023/07/04 07:36:14;;;;;;;4.18;2.13;;;19.90;99.90;;;;;;4995003;28;20179;-42
2023/07/04 07:38:41;;;;;;;3.75;2.05;;;19.80;99.90;;;;;;4989075;28;20246;-43
2023/07/04 07:41:07;;;;;;;4.15;2.25;;;19.80;99.90;;;;;;4971722;28;20192;-42
2023/07/04 07:43:34;;;;;;;3.10;2.20;;;19.80;99.90;;;;;;4977429;28;20196;-43
2023/07/04 07:46:00;;;;;;;2.80;1.90;;;19.80;99.90;;;;;;4989846;28;20184;-43
2023/07/04 07:48:27;;;;;;;3.38;2.30;;;19.90;99.90;;;;;;4994669;28;20214;-43
2023/07/04 07:50:53;;;;;;;3.95;2.28;;;20.00;99.90;;;;;;4984663;28;20203;-42
2023/07/04 07:53:19;;;;;;;2.95;2.00;;;20.10;99.90;;;;;;4995719;28;20189;-41
2023/07/04 07:55:45;;;;;;;3.35;2.00;;;20.20;99.90;;;;;;4992325;28;20271;-42
2023/07/04 07:58:10;;;;;;;3.72;2.03;;;20.40;99.90;;;;;;4989170;28;20236;-43
2023/07/04 08:00:36;;;;;;;3.90;2.38;;;20.50;99.90;;;;;;4972740;28;20207;-43
2023/07/04 08:03:02;;;;;;;2.78;2.10;;;20.60;99.90;;;;;;4983783;28;20172;-41
2023/07/04 08:05:28;;;;;;;3.55;2.20;;;20.80;99.90;;;;;;4996607;28;20187;-42
2023/07/04 08:07:54;;;;;;;2.75;2.10;;;20.90;99.90;;;;;;4982739;28;20239;-42
2023/07/04 08:10:20;;;;;;;2.50;2.13;;;20.90;99.90;;;;;;4994937;28;20218;-44
2023/07/04 08:12:46;;;;;;;5.40;2.22;;;20.90;99.90;;;;;;4988843;28;20212;-42
2023/07/04 08:15:12;;;;;;;3.33;1.95;;;20.80;99.90;;;;;;4970624;28;20248;-43
2023/07/04 08:17:38;;;;;;;2.72;1.80;;;20.80;99.90;;;;;;4980545;28;20214;-41
2023/07/04 08:20:05;;;;;;;4.82;2.20;;;20.90;99.90;;;;;;4973217;28;20187;-42
2023/07/04 08:22:31;;;;;;;4.05;2.15;;;21.10;99.90;;;;;;4974954;28;20183;-42
2023/07/04 08:24:58;;;;;;;4.50;2.55;;;21.20;99.90;;;;;;4975440;28;20241;-41
2023/07/04 08:27:28;;;;;;;6.18;2.50;;;21.20;99.90;;;;;;4974391;28;20215;-41
2023/07/04 08:29:54;;;;;;;4.00;2.60;;;21.20;99.90;;;;;;4964276;28;20200;-43
2023/07/04 08:32:20;;;;;;;3.47;2.10;;;21.30;99.90;;;;;;4982936;28;20187;-42
2023/07/04 08:34:46;;;;;;;3.63;2.47;;;21.30;99.90;;;;;;4985535;28;20251;-42
2023/07/04 08:37:17;;;;;;;5.68;2.50;;;21.40;99.90;;;;;;4994513;28;20199;-43
2023/07/04 08:39:46;;;;;;;4.50;2.25;;;21.60;99.90;;;;;;4988071;28;20192;-42
2023/07/04 08:42:15;;;;;;;6.68;2.80;;;21.90;99.90;;;;;;4970468;28;20652;-43
2023/07/04 08:44:50;;;;;;;5.28;2.58;;;22.00;99.90;;;;;;4985733;28;20183;-42
2023/07/04 08:47:19;;;;;;;6.28;2.42;;;22.00;99.90;;;;;;4994440;28;20211;-43
2023/07/04 08:49:50;;;;;;;4.45;2.22;;;21.90;99.90;;;;;;4967828;28;20215;-42
2023/07/04 08:52:44;;;;;;;6.60;2.78;;;21.90;99.90;;;;;;4980233;28;20185;-43
2023/07/04 08:55:13;;;;;;;4.32;2.70;;;22.20;99.90;;;;;;4970589;28;20187;-43
2023/07/04 08:57:53;;;;;;;5.03;2.28;;;22.40;99.90;;;;;;4988673;28;20203;-42
2023/07/04 09:00:36;;;;;;;4.28;2.50;;;22.30;99.90;;;;;;4971671;28;20202;-41
2023/07/04 09:03:20;;;;;;;5.95;3.00;;;22.40;99.90;;;;;;4982195;28;20191;-43
2023/07/04 09:06:09;;;;;;;4.10;2.55;;;22.30;99.90;;;;;;4991655;28;20192;-43
2023/07/04 09:09:10;;;;;;;4.90;2.65;;;22.40;99.90;;;;;;4987608;28;20208;-42
2023/07/04 09:11:37;;;;;;;7.05;2.78;;;22.40;99.90;;;;;;4953667;28;20199;-42
2023/07/04 09:14:23;;;;;;;4.35;2.63;;;22.40;99.90;;;;;;4977118;28;20184;-43
2023/07/04 09:16:51;;;;;;;3.72;2.22;;;22.60;99.90;;;;;;4974784;28;20172;-43
2023/07/04 09:19:19;;;;;;;7.32;3.10;;;22.70;99.90;;;;;;4987998;28;20218;-42
2023/07/04 09:21:45;;;;;;;8.25;3.70;;;22.70;99.90;;;;;;4977391;28;20202;-43
2023/07/04 09:24:12;;;;;;;4.43;2.70;;;23.00;99.90;;;;;;4983665;28;20198;-41
2023/07/04 09:26:49;;;;;;;8.15;3.22;;;23.20;99.90;;;;;;4983797;28;20223;-44
2023/07/04 09:29:22;;;;;;;4.60;2.78;;;23.20;99.90;;;;;;4990019;28;20223;-44
2023/07/04 09:31:54;;;;;;;6.65;3.53;;;23.30;99.90;;;;;;4985551;28;20191;-42
2023/07/04 09:34:26;;;;;;;6.38;3.00;;;23.40;99.90;;;;;;4980829;28;20251;-43
2023/07/04 09:36:52;;;;;;;5.47;3.08;;;23.40;99.90;;;;;;4997716;28;20199;-41
2023/07/04 09:39:18;;;;;;;5.43;3.10;;;23.60;99.90;;;;;;4978739;28;20195;-44
2023/07/04 09:41:56;;;;;;;6.25;3.35;;;23.60;99.90;;;;;;4982255;28;20177;-42
2023/07/04 09:44:28;;;;;;;4.10;3.30;;;23.60;99.90;;;;;;4997948;28;20180;-44
2023/07/04 09:46:56;;;;;;;6.50;3.58;;;23.70;99.90;;;;;;4986380;28;20215;-41
2023/07/04 09:49:27;;;;;;;5.18;3.40;;;23.70;99.90;;;;;;4981758;28;20200;-44
2023/07/04 09:52:02;;;;;;;7.70;3.53;;;23.70;99.90;;;;;;4984385;28;20183;-43
2023/07/04 09:54:30;;;;;;;6.50;3.45;;;23.70;99.90;;;;;;4977499;28;20178;-43
2023/07/04 09:57:14;;;;;;;6.25;3.13;;;23.90;99.90;;;;;;4977252;28;20180;-44
2023/07/04 09:59:42;;;;;;;6.72;3.10;;;24.00;99.90;;;;;;4992728;28;20188;-43
2023/07/04 10:02:17;;;;;;;7.30;3.22;;;24.20;99.90;;;;;;4969609;28;20176;-44
2023/07/04 10:04:46;;;;;;;5.00;3.50;;;24.30;99.90;;;;;;4968637;28;20191;-43
2023/07/04 10:07:41;;;;;;;4.88;3.17;;;24.50;99.90;;;;;;4999263;28;20218;-44
2023/07/04 10:10:12;;;;;;;5.13;2.90;;;24.60;99.90;;;;;;4984624;28;20211;-42
2023/07/04 10:12:44;;;;;;;5.50;2.85;;;24.40;99.90;;;;;;4983157;28;20354;-43
2023/07/04 10:15:18;;;;;;;4.97;3.17;;;24.60;99.90;;;;;;4977473;28;20188;-42
2023/07/04 10:17:44;;;;;;;6.93;3.22;;;24.40;99.90;;;;;;4997715;28;20227;-44
2023/07/04 10:20:13;;;;;;;4.85;3.20;;;24.50;99.90;;;;;;4979484;28;20211;-42
2023/07/04 10:22:45;;;;;;;4.72;2.80;;;24.60;99.90;;;;;;4997756;28;20183;-43
2023/07/04 10:25:14;;;;;;;4.45;2.45;;;24.80;99.90;;;;;;4984498;28;20191;-43
2023/07/04 10:27:44;;;;;;;4.50;2.90;;;24.80;99.90;;;;;;4994559;28;20211;-44
2023/07/04 10:30:22;;;;;;;4.15;2.75;;;25.00;99.90;;;;;;4982773;28;20203;-42
2023/07/04 10:33:07;;;;;;;6.45;3.30;;;24.80;99.90;;;;;;4979921;28;20180;-43
2023/07/04 10:35:40;;;;;;;5.35;3.05;;;24.60;99.90;;;;;;4979518;28;20206;-43
2023/07/04 10:38:36;;;;;;;4.63;3.03;;;24.70;99.90;;;;;;4981973;28;20271;-43
2023/07/04 10:41:25;;;;;;;4.05;2.78;;;25.00;99.90;;;;;;4984163;28;20193;-43
2023/07/04 10:43:58;;;;;;;4.55;2.10;;;25.20;99.90;;;;;;4997958;28;20660;-43
2023/07/04 10:46:28;;;;;;;4.20;2.67;;;25.50;99.90;;;;;;4981559;28;20187;-43
2023/07/04 10:49:09;;;;;;;4.03;2.83;;;25.50;99.90;;;;;;4977619;28;20195;-44
2023/07/04 10:51:39;;;;;;;4.25;2.42;;;25.20;99.90;;;;;;4982330;28;20715;-43
2023/07/04 10:54:08;;;;;;;4.15;3.00;;;25.40;99.90;;;;;;4983735;28;20199;-42
2023/07/04 10:56:36;;;;;;;3.88;2.53;;;25.60;99.90;;;;;;4976755;28;20184;-43
2023/07/04 10:59:16;;;;;;;4.78;2.80;;;25.50;99.90;;;;;;4977315;28;20203;-44
2023/07/04 11:01:59;;;;;;;5.30;2.80;;;25.80;99.90;;;;;;5014368;28;20271;-42
2023/07/04 11:04:33;;;;;;;4.97;2.60;;;26.10;99.90;;;;;;5001346;28;20179;-43
2023/07/04 11:07:04;;;;;;;4.30;2.60;;;26.30;99.90;;;;;;4985865;28;20172;-41
2023/07/04 11:09:42;;;;;;;5.45;2.60;;;26.30;99.90;;;;;;4990984;28;20218;-43
2023/07/04 11:12:15;;;;;;;3.45;2.33;;;26.00;99.90;;;;;;4982470;28;20290;-42
2023/07/04 11:14:43;;;;;;;4.22;2.72;;;25.60;99.90;;;;;;4985590;28;20180;-43
2023/07/04 11:17:21;;;;;;;3.15;2.40;;;25.10;99.90;;;;;;4982575;28;20206;-43
2023/07/04 11:20:13;;;;;;;3.90;2.60;;;25.00;99.90;;;;;;4997419;28;20194;-43
2023/07/04 11:22:57;;;;;;;3.45;2.60;;;25.50;99.90;;;;;;4984000;28;20171;-43
2023/07/04 11:25:51;;;;;;;4.93;2.97;;;26.00;99.90;;;;;;4984589;28;20188;-43
2023/07/04 11:28:35;;;;;;;3.20;2.85;;;26.30;99.90;;;;;;4996475;28;20215;-43
2023/07/04 11:31:27;;;;;;;3.92;2.63;;;26.40;99.90;;;;;;4974615;28;20263;-42
2023/07/04 11:33:53;;;;;;;4.40;2.90;;;26.60;99.90;;;;;;4997776;28;20242;-42
2023/07/04 11:36:28;;;;;;;5.38;3.00;;;26.90;99.90;;;;;;4976512;28;20734;-44
2023/07/04 11:38:59;;;;;;;4.00;3.03;;;27.10;99.90;;;;;;4990544;28;20298;-44
2023/07/04 11:41:30;;;;;;;3.30;2.85;;;27.40;99.90;;;;;;5004992;28;20263;-43
2023/07/04 11:44:00;;;;;;;3.00;2.70;;;27.50;99.90;;;;;;5006427;28;20190;-44
2023/07/04 11:46:28;;;;;;;3.78;2.50;;;27.60;99.90;;;;;;4982611;28;20190;-44
2023/07/04 11:48:57;;;;;;;3.15;2.63;;;27.40;99.90;;;;;;4981616;28;20214;-44
2023/07/04 11:51:25;;;;;;;5.20;2.30;;;27.30;99.90;;;;;;4974659;28;20192;-44
2023/07/04 11:53:56;;;;;;;3.72;2.70;;;27.10;99.90;;;;;;4989600;28;20190;-43
2023/07/04 11:56:23;;;;;;;4.60;2.90;;;27.10;99.90;;;;;;4995524;28;20176;-43
2023/07/04 11:59:16;;;;;;;3.47;2.30;;;26.80;99.90;;;;;;4975353;28;20202;-42
2023/07/04 12:01:51;;;;;;;2.92;2.40;;;26.50;99.90;;;;;;5005406;28;20187;-43
2023/07/04 12:04:35;;;;;;;5.93;2.40;;;26.40;99.90;;;;;;4988678;28;20187;-43
2023/07/04 12:07:10;;;;;;;3.55;2.60;;;26.50;99.90;;;;;;4987117;28;20258;-42
2023/07/04 12:09:49;;;;;;;2.95;2.42;;;26.50;99.90;;;;;;4978630;28;20200;-43
2023/07/04 12:12:20;;;;;;;3.67;2.50;;;26.40;99.90;;;;;;5005879;28;20191;-43
2023/07/04 12:14:48;;;;;;;3.70;2.13;;;26.50;99.90;;;;;;4978089;28;20173;-43
2023/07/04 12:17:17;;;;;;;2.50;2.28;;;26.20;99.90;;;;;;4970144;28;20208;-43
2023/07/04 12:19:45;;;;;;;4.47;2.70;;;26.20;99.90;;;;;;4989180;28;20223;-42
2023/07/04 12:22:17;;;;;;;3.15;2.30;;;26.20;99.90;;;;;;4972881;28;20184;-43
2023/07/04 12:24:45;;;;;;;4.00;2.60;;;26.20;99.90;;;;;;4974545;28;20197;-43
2023/07/04 12:27:11;;;;;;;2.95;2.25;;;26.10;99.90;;;;;;4973528;28;20222;-42
2023/07/04 12:29:46;;;;;;;3.15;2.22;;;26.20;99.90;;;;;;4970214;28;20264;-42
2023/07/04 12:32:20;;;;;;;2.70;2.33;;;26.30;99.90;;;;;;4989421;28;20199;-43
2023/07/04 12:34:46;;;;;;;3.42;2.30;;;26.20;99.90;;;;;;4974564;28;20191;-42
2023/07/04 12:37:19;;;;;;;3.30;2.38;;;26.20;99.90;;;;;;4974378;28;20211;-42
2023/07/04 12:39:51;;;;;;;3.42;2.33;;;26.20;99.90;;;;;;4979383;28;20192;-44
2023/07/04 12:42:30;;;;;;;4.00;2.75;;;26.10;99.90;;;;;;4988723;28;20192;-40
2023/07/04 12:44:57;;;;;;;2.97;2.30;;;26.20;99.90;;;;;;4988940;28;20187;-41
2023/07/04 12:47:26;;;;;;;5.07;2.50;;;26.10;99.90;;;;;;4973437;28;20204;-42
2023/07/04 12:50:02;;;;;;;2.20;2.00;;;26.10;99.90;;;;;;4989729;28;20254;-43
2023/07/04 12:52:33;;;;;;;2.50;2.15;;;26.10;99.90;;;;;;5005623;28;20187;-43
2023/07/04 12:55:03;;;;;;;3.05;2.50;;;26.00;99.90;;;;;;4990687;28;20171;-43
2023/07/04 12:57:34;;;;;;;4.70;2.38;;;25.80;99.90;;;;;;4995284;28;20232;-42
2023/07/04 13:00:09;;;;;;;3.88;2.75;;;25.80;99.90;;;;;;4992680;28;20266;-42
2023/07/04 13:02:40;;;;;;;2.30;2.10;;;26.00;99.90;;;;;;4974551;28;20283;-43